sensor_id;sensor_type;location;lat;lon;timestamp;pressure;altitude;pressure_sealevel;temperature;humidity
77106;BME280;66057;54.718;18.426;2023-04-10T00:01:02;102555.38;;;1.65;100.00
77106;BME280;66057;54.718;18.426;2023-04-10T00:03:28;102555.63;;;1.59;100.00
77106;BME280;66057;54.718;18.426;2023-04-10T00:05:54;102552.63;;;1.55;100.00
77106;BME280;66057;54.718;18.426;2023-04-10T00:08:22;102550.22;;;1.48;100.00
77106;BME280;66057;54.718;18.426;2023-04-10T00:10:47;102550.03;;;1.46;99.91
77106;BME280;66057;54.718;18.426;2023-04-10T00:13:14;102542.50;;;1.39;99.82
77106;BME280;66057;54.718;18.426;2023-04-10T00:15:41;102550.88;;;1.38;100.00
77106;BME280;66057;54.718;18.426;2023-04-10T00:18:06;102541.88;;;1.33;99.86
77106;BME280;66057;54.718;18.426;2023-04-10T00:20:32;102540.09;;;1.32;100.00
77106;BME280;66057;54.718;18.426;2023-04-10T00:22:58;102541.41;;;1.28;100.00
77106;BME280;66057;54.718;18.426;2023-04-10T00:25:23;102538.13;;;1.29;100.00
77106;BME280;66057;54.718;18.426;2023-04-10T00:27:52;102542.84;;;1.26;100.00
77106;BME280;66057;54.718;18.426;2023-04-10T00:30:18;102542.84;;;1.26;100.00
77106;BME280;66057;54.718;18.426;2023-04-10T00:32:44;102537.31;;;1.22;100.00
77106;BME280;66057;54.718;18.426;2023-04-10T00:35:09;102540.00;;;1.23;100.00
77106;BME280;66057;54.718;18.426;2023-04-10T00:37:35;102545.22;;;1.25;100.00
77106;BME280;66057;54.718;18.426;2023-04-10T00:40:01;102545.63;;;1.21;100.00
77106;BME280;66057;54.718;18.426;2023-04-10T00:42:27;102550.06;;;1.15;100.00
77106;BME280;66057;54.718;18.426;2023-04-10T00:44:53;102539.28;;;1.09;100.00
77106;BME280;66057;54.718;18.426;2023-04-10T00:47:18;102545.38;;;1.11;100.00
77106;BME280;66057;54.718;18.426;2023-04-10T00:49:44;102543.94;;;1.13;100.00
77106;BME280;66057;54.718;18.426;2023-04-10T00:52:10;102549.00;;;1.13;100.00
77106;BME280;66057;54.718;18.426;2023-04-10T00:54:36;102554.72;;;1.19;100.00
77106;BME280;66057;54.718;18.426;2023-04-10T00:57:02;102548.59;;;1.17;100.00
77106;BME280;66057;54.718;18.426;2023-04-10T00:59:29;102549.97;;;1.22;100.00
77106;BME280;66057;54.718;18.426;2023-04-10T01:01:56;102533.72;;;1.20;100.00
77106;BME280;66057;54.718;18.426;2023-04-10T01:04:22;102550.47;;;1.26;100.00
77106;BME280;66057;54.718;18.426;2023-04-10T01:07:03;102547.50;;;1.30;100.00
77106;BME280;66057;54.718;18.426;2023-04-10T01:10:17;102544.97;;;1.30;99.61
77106;BME280;66057;54.718;18.426;2023-04-10T01:15:39;102549.97;;;1.22;100.00
77106;BME280;66057;54.718;18.426;2023-04-10T01:18:23;102537.31;;;1.22;100.00
77106;BME280;66057;54.718;18.426;2023-04-10T01:20:51;102543.88;;;1.20;100.00
77106;BME280;66057;54.718;18.426;2023-04-10T01:26:06;102539.59;;;1.12;100.00
77106;BME280;66057;54.718;18.426;2023-04-10T01:28:53;102547.44;;;1.06;100.00
77106;BME280;66057;54.718;18.426;2023-04-10T01:34:08;102552.91;;;1.02;100.00
77106;BME280;66057;54.718;18.426;2023-04-10T01:39:38;102543.91;;;0.97;100.00
77106;BME280;66057;54.718;18.426;2023-04-10T01:42:06;102541.47;;;0.90;100.00
77106;BME280;66057;54.718;18.426;2023-04-10T01:44:35;102544.44;;;0.86;100.00
77106;BME280;66057;54.718;18.426;2023-04-10T01:47:03;102527.34;;;0.76;100.00
77106;BME280;66057;54.718;18.426;2023-04-10T01:49:31;102540.50;;;0.81;100.00
77106;BME280;66057;54.718;18.426;2023-04-10T01:51:59;102530.59;;;0.75;100.00
77106;BME280;66057;54.718;18.426;2023-04-10T01:54:26;102525.19;;;0.72;100.00
77106;BME280;66057;54.718;18.426;2023-04-10T01:56:52;102522.94;;;0.67;100.00
77106;BME280;66057;54.718;18.426;2023-04-10T01:59:18;102532.06;;;0.73;100.00
77106;BME280;66057;54.718;18.426;2023-04-10T02:01:44;102519.91;;;0.78;100.00
77106;BME280;66057;54.718;18.426;2023-04-10T02:04:10;102518.75;;;0.83;100.00
77106;BME280;66057;54.718;18.426;2023-04-10T02:06:52;102511.34;;;0.84;100.00
77106;BME280;66057;54.718;18.426;2023-04-10T02:09:27;102522.44;;;0.94;100.00
77106;BME280;66057;54.718;18.426;2023-04-10T02:12:03;102523.53;;;0.96;100.00
77106;BME280;66057;54.718;18.426;2023-04-10T02:14:31;102528.91;;;0.99;100.00
77106;BME280;66057;54.718;18.426;2023-04-10T02:17:00;102517.88;;;0.98;100.00
77106;BME280;66057;54.718;18.426;2023-04-10T02:19:27;102518.38;;;1.03;100.00
77106;BME280;66057;54.718;18.426;2023-04-10T02:21:54;102518.84;;;1.07;100.00
77106;BME280;66057;54.718;18.426;2023-04-10T02:24:21;102517.22;;;1.08;100.00
77106;BME280;66057;54.718;18.426;2023-04-10T02:26:48;102515.41;;;1.07;100.00
77106;BME280;66057;54.718;18.426;2023-04-10T02:29:14;102517.53;;;1.11;100.00
77106;BME280;66057;54.718;18.426;2023-04-10T02:31:40;102518.13;;;1.08;100.00
77106;BME280;66057;54.718;18.426;2023-04-10T02:34:06;102517.63;;;1.04;100.00
77106;BME280;66057;54.718;18.426;2023-04-10T02:36:34;102524.31;;;1.03;100.00
77106;BME280;66057;54.718;18.426;2023-04-10T02:38:59;102533.38;;;1.01;100.00
77106;BME280;66057;54.718;18.426;2023-04-10T02:41:25;102522.94;;;0.98;100.00
77106;BME280;66057;54.718;18.426;2023-04-10T02:43:51;102522.75;;;0.97;100.00
77106;BME280;66057;54.718;18.426;2023-04-10T02:46:16;102526.38;;;0.99;100.00
77106;BME280;66057;54.718;18.426;2023-04-10T02:48:42;102522.03;;;0.98;100.00
77106;BME280;66057;54.718;18.426;2023-04-10T02:51:07;102516.56;;;1.02;100.00
77106;BME280;66057;54.718;18.426;2023-04-10T02:53:34;102520.00;;;1.02;100.00
77106;BME280;66057;54.718;18.426;2023-04-10T02:56:00;102516.56;;;1.02;100.00
77106;BME280;66057;54.718;18.426;2023-04-10T02:58:27;102510.03;;;1.04;100.00
77106;BME280;66057;54.718;18.426;2023-04-10T03:00:55;102509.72;;;1.01;100.00
77106;BME280;66057;54.718;18.426;2023-04-10T03:03:21;102512.25;;;1.01;100.00
77106;BME280;66057;54.718;18.426;2023-04-10T03:05:46;102511.84;;;1.05;100.00
77106;BME280;66057;54.718;18.426;2023-04-10T03:08:16;102511.25;;;1.07;100.00
77106;BME280;66057;54.718;18.426;2023-04-10T03:10:45;102508.25;;;1.03;100.00
77106;BME280;66057;54.718;18.426;2023-04-10T03:13:13;102515.00;;;1.11;100.00
77106;BME280;66057;54.718;18.426;2023-04-10T03:15:39;102520.25;;;1.12;100.00
77106;BME280;66057;54.718;18.426;2023-04-10T03:18:05;102520.06;;;1.11;100.00
77106;BME280;66057;54.718;18.426;2023-04-10T03:20:32;102515.75;;;1.10;100.00
77106;BME280;66057;54.718;18.426;2023-04-10T03:23:01;102515.19;;;1.12;100.00
77106;BME280;66057;54.718;18.426;2023-04-10T03:25:27;102516.00;;;1.20;100.00
77106;BME280;66057;54.718;18.426;2023-04-10T03:27:53;102514.94;;;1.18;100.00
77106;BME280;66057;54.718;18.426;2023-04-10T03:30:19;102511.81;;;1.20;100.00
77106;BME280;66057;54.718;18.426;2023-04-10T03:32:45;102509.28;;;1.20;100.00
77106;BME280;66057;54.718;18.426;2023-04-10T03:35:10;102509.13;;;1.19;100.00
77106;BME280;66057;54.718;18.426;2023-04-10T03:37:36;102508.78;;;1.16;100.00
77106;BME280;66057;54.718;18.426;2023-04-10T03:40:06;102515.66;;;1.17;100.00
77106;BME280;66057;54.718;18.426;2023-04-10T03:42:33;102516.00;;;1.20;100.00
77106;BME280;66057;54.718;18.426;2023-04-10T03:44:58;102516.38;;;1.16;100.00
77106;BME280;66057;54.718;18.426;2023-04-10T03:47:25;102513.13;;;1.17;100.00
77106;BME280;66057;54.718;18.426;2023-04-10T03:49:51;102504.16;;;1.12;100.00
77106;BME280;66057;54.718;18.426;2023-04-10T03:52:17;102512.88;;;1.07;100.00
77106;BME280;66057;54.718;18.426;2023-04-10T03:54:42;102508.16;;;1.10;100.00
77106;BME280;66057;54.718;18.426;2023-04-10T03:57:08;102513.97;;;1.09;100.00
77106;BME280;66057;54.718;18.426;2023-04-10T03:59:33;102511.75;;;0.96;100.00
77106;BME280;66057;54.718;18.426;2023-04-10T04:02:00;102521.00;;;0.96;100.00
77106;BME280;66057;54.718;18.426;2023-04-10T04:04:26;102521.00;;;0.96;100.00
77106;BME280;66057;54.718;18.426;2023-04-10T04:06:53;102519.03;;;0.93;100.00
77106;BME280;66057;54.718;18.426;2023-04-10T04:09:21;102521.00;;;0.96;100.00
77106;BME280;66057;54.718;18.426;2023-04-10T04:11:48;102522.75;;;0.97;100.00
77106;BME280;66057;54.718;18.426;2023-04-10T04:14:13;102524.56;;;0.98;100.00
77106;BME280;66057;54.718;18.426;2023-04-10T04:16:39;102530.78;;;0.93;100.00
77106;BME280;66057;54.718;18.426;2023-04-10T04:19:05;102533.47;;;0.94;100.00
77106;BME280;66057;54.718;18.426;2023-04-10T04:21:31;102531.78;;;0.86;100.00
77106;BME280;66057;54.718;18.426;2023-04-10T04:24:00;102538.88;;;0.81;100.00
77106;BME280;66057;54.718;18.426;2023-04-10T04:26:26;102539.19;;;0.84;100.00
77106;BME280;66057;54.718;18.426;2023-04-10T04:28:51;102533.53;;;0.87;100.00
77106;BME280;66057;54.718;18.426;2023-04-10T04:31:17;102536.91;;;0.95;100.00
77106;BME280;66057;54.718;18.426;2023-04-10T04:33:43;102532.50;;;1.01;100.00
77106;BME280;66057;54.718;18.426;2023-04-10T04:36:08;102536.56;;;1.07;100.00
77106;BME280;66057;54.718;18.426;2023-04-10T04:38:34;102537.47;;;1.08;100.00
77106;BME280;66057;54.718;18.426;2023-04-10T04:40:59;102537.66;;;1.09;100.00
77106;BME280;66057;54.718;18.426;2023-04-10T04:43:25;102543.75;;;1.11;100.00
77106;BME280;66057;54.718;18.426;2023-04-10T04:45:51;102545.16;;;1.16;100.00
77106;BME280;66057;54.718;18.426;2023-04-10T04:48:16;102549.41;;;1.24;100.00
77106;BME280;66057;54.718;18.426;2023-04-10T04:50:42;102560.59;;;1.26;100.00
77106;BME280;66057;54.718;18.426;2023-04-10T04:53:09;102560.94;;;1.29;100.00
77106;BME280;66057;54.718;18.426;2023-04-10T04:55:38;102560.34;;;1.32;100.00
77106;BME280;66057;54.718;18.426;2023-04-10T04:58:03;102565.91;;;1.37;100.00
77106;BME280;66057;54.718;18.426;2023-04-10T05:00:30;102565.16;;;1.38;100.00
77106;BME280;66057;54.718;18.426;2023-04-10T05:02:56;102558.38;;;1.45;100.00
77106;BME280;66057;54.718;18.426;2023-04-10T05:05:22;102574.72;;;1.40;100.00
77106;BME280;66057;54.718;18.426;2023-04-10T05:07:48;102564.56;;;1.56;100.00
77106;BME280;66057;54.718;18.426;2023-04-10T05:10:14;102569.56;;;1.63;100.00
77106;BME280;66057;54.718;18.426;2023-04-10T05:12:40;102566.69;;;1.60;100.00
77106;BME280;66057;54.718;18.426;2023-04-10T05:15:08;102565.47;;;1.56;100.00
77106;BME280;66057;54.718;18.426;2023-04-10T05:17:33;102568.38;;;1.68;100.00
77106;BME280;66057;54.718;18.426;2023-04-10T05:19:59;102560.50;;;1.73;100.00
77106;BME280;66057;54.718;18.426;2023-04-10T05:22:25;102564.00;;;1.83;100.00
77106;BME280;66057;54.718;18.426;2023-04-10T05:24:52;102568.56;;;1.94;100.00
77106;BME280;66057;54.718;18.426;2023-04-10T05:27:19;102575.19;;;2.00;100.00
77106;BME280;66057;54.718;18.426;2023-04-10T05:29:44;102574.28;;;2.00;100.00
77106;BME280;66057;54.718;18.426;2023-04-10T05:32:10;102580.50;;;1.95;100.00
77106;BME280;66057;54.718;18.426;2023-04-10T05:34:36;102573.94;;;1.97;100.00
77106;BME280;66057;54.718;18.426;2023-04-10T05:37:01;102575.66;;;2.05;100.00
77106;BME280;66057;54.718;18.426;2023-04-10T05:39:27;102575.53;;;2.12;100.00
77106;BME280;66057;54.718;18.426;2023-04-10T05:41:53;102574.06;;;2.14;100.00
77106;BME280;66057;54.718;18.426;2023-04-10T05:44:20;102569.47;;;2.18;100.00
77106;BME280;66057;54.718;18.426;2023-04-10T05:46:45;102572.06;;;2.36;100.00
77106;BME280;66057;54.718;18.426;2023-04-10T05:49:12;102573.91;;;2.45;99.93
77106;BME280;66057;54.718;18.426;2023-04-10T05:51:37;102570.84;;;2.56;99.70
77106;BME280;66057;54.718;18.426;2023-04-10T05:54:03;102567.47;;;2.73;99.48
77106;BME280;66057;54.718;18.426;2023-04-10T05:56:29;102554.34;;;2.86;99.85
77106;BME280;66057;54.718;18.426;2023-04-10T05:58:54;102560.22;;;3.02;99.99
77106;BME280;66057;54.718;18.426;2023-04-10T06:01:20;102566.06;;;3.18;99.11
77106;BME280;66057;54.718;18.426;2023-04-10T06:03:46;102564.88;;;3.32;98.94
77106;BME280;66057;54.718;18.426;2023-04-10T06:06:11;102576.84;;;3.41;98.34
77106;BME280;66057;54.718;18.426;2023-04-10T06:08:37;102564.91;;;3.40;98.44
77106;BME280;66057;54.718;18.426;2023-04-10T06:11:03;102571.47;;;3.56;98.41
77106;BME280;66057;54.718;18.426;2023-04-10T06:13:30;102568.94;;;3.64;97.74
77106;BME280;66057;54.718;18.426;2023-04-10T06:15:56;102568.75;;;3.71;97.51
77106;BME280;66057;54.718;18.426;2023-04-10T06:18:22;102555.31;;;3.72;97.12
77106;BME280;66057;54.718;18.426;2023-04-10T06:20:48;102557.25;;;3.83;97.38
77106;BME280;66057;54.718;18.426;2023-04-10T06:23:14;102569.66;;;3.98;97.08
77106;BME280;66057;54.718;18.426;2023-04-10T06:25:40;102574.56;;;4.05;97.14
77106;BME280;66057;54.718;18.426;2023-04-10T06:28:06;102559.13;;;4.03;96.60
77106;BME280;66057;54.718;18.426;2023-04-10T06:30:32;102576.16;;;4.13;96.41
77106;BME280;66057;54.718;18.426;2023-04-10T06:32:59;102564.81;;;4.09;96.87
77106;BME280;66057;54.718;18.426;2023-04-10T06:35:28;102567.94;;;4.15;95.99
77106;BME280;66057;54.718;18.426;2023-04-10T06:37:54;102575.72;;;4.25;96.31
77106;BME280;66057;54.718;18.426;2023-04-10T06:40:19;102564.31;;;4.30;95.81
77106;BME280;66057;54.718;18.426;2023-04-10T06:42:45;102560.88;;;4.30;95.72
77106;BME280;66057;54.718;18.426;2023-04-10T06:45:11;102564.38;;;4.49;95.63
77106;BME280;66057;54.718;18.426;2023-04-10T06:47:37;102549.81;;;4.57;95.86
77106;BME280;66057;54.718;18.426;2023-04-10T06:50:06;102563.41;;;4.66;95.50
77106;BME280;66057;54.718;18.426;2023-04-10T06:52:32;102562.28;;;4.81;95.26
77106;BME280;66057;54.718;18.426;2023-04-10T06:54:57;102550.03;;;4.77;94.55
77106;BME280;66057;54.718;18.426;2023-04-10T06:57:23;102544.13;;;4.87;94.96
77106;BME280;66057;54.718;18.426;2023-04-10T06:59:49;102547.75;;;5.07;94.94
77106;BME280;66057;54.718;18.426;2023-04-10T07:02:15;102560.34;;;5.24;94.55
77106;BME280;66057;54.718;18.426;2023-04-10T07:04:41;102547.41;;;5.32;94.61
77106;BME280;66057;54.718;18.426;2023-04-10T07:07:07;102564.13;;;5.57;94.67
77106;BME280;66057;54.718;18.426;2023-04-10T07:09:34;102555.88;;;5.59;93.79
77106;BME280;66057;54.718;18.426;2023-04-10T07:12:01;102548.41;;;5.71;93.86
77106;BME280;66057;54.718;18.426;2023-04-10T07:14:26;102551.16;;;5.83;93.22
77106;BME280;66057;54.718;18.426;2023-04-10T07:16:52;102559.31;;;5.97;92.51
77106;BME280;66057;54.718;18.426;2023-04-10T07:19:18;102553.78;;;5.93;91.82
77106;BME280;66057;54.718;18.426;2023-04-10T07:21:45;102552.91;;;5.92;90.88
77106;BME280;66057;54.718;18.426;2023-04-10T07:24:17;102556.28;;;6.11;91.40
77106;BME280;66057;54.718;18.426;2023-04-10T07:26:44;102556.47;;;6.23;91.05
77106;BME280;66057;54.718;18.426;2023-04-10T07:29:10;102545.75;;;6.27;91.04
77106;BME280;66057;54.718;18.426;2023-04-10T07:31:36;102535.31;;;6.44;91.23
77106;BME280;66057;54.718;18.426;2023-04-10T07:34:02;102548.13;;;6.65;90.87
77106;BME280;66057;54.718;18.426;2023-04-10T07:36:28;102543.41;;;6.59;90.07
77106;BME280;66057;54.718;18.426;2023-04-10T07:38:54;102548.91;;;6.74;90.82
77106;BME280;66057;54.718;18.426;2023-04-10T07:41:20;102544.47;;;6.71;89.42
77106;BME280;66057;54.718;18.426;2023-04-10T07:43:47;102541.22;;;6.64;90.06
77106;BME280;66057;54.718;18.426;2023-04-10T07:46:13;102548.78;;;6.82;90.59
77106;BME280;66057;54.718;18.426;2023-04-10T07:48:38;102547.00;;;6.81;90.49
77106;BME280;66057;54.718;18.426;2023-04-10T07:51:04;102548.94;;;6.94;90.25
77106;BME280;66057;54.718;18.426;2023-04-10T07:53:34;102550.09;;;7.08;90.84
77106;BME280;66057;54.718;18.426;2023-04-10T07:56:00;102546.63;;;7.07;90.10
77106;BME280;66057;54.718;18.426;2023-04-10T07:58:26;102537.53;;;7.21;89.63
77106;BME280;66057;54.718;18.426;2023-04-10T08:00:52;102545.34;;;7.32;89.71
77106;BME280;66057;54.718;18.426;2023-04-10T08:03:17;102543.03;;;7.35;89.42
77106;BME280;66057;54.718;18.426;2023-04-10T08:05:43;102539.81;;;7.48;89.93
77106;BME280;66057;54.718;18.426;2023-04-10T08:08:09;102533.38;;;7.53;89.33
77106;BME280;66057;54.718;18.426;2023-04-10T08:10:35;102545.56;;;7.56;89.39
77106;BME280;66057;54.718;18.426;2023-04-10T08:13:02;102540.66;;;7.59;89.04
77106;BME280;66057;54.718;18.426;2023-04-10T08:15:27;102544.25;;;7.61;88.99
77106;BME280;66057;54.718;18.426;2023-04-10T08:17:53;102535.94;;;7.53;89.29
77106;BME280;66057;54.718;18.426;2023-04-10T08:20:22;102535.84;;;7.41;90.18
77106;BME280;66057;54.718;18.426;2023-04-10T08:22:47;102536.91;;;7.33;90.47
77106;BME280;66057;54.718;18.426;2023-04-10T08:25:13;102535.34;;;7.35;90.47
77106;BME280;66057;54.718;18.426;2023-04-10T08:27:39;102533.94;;;7.39;90.19
77106;BME280;66057;54.718;18.426;2023-04-10T08:30:07;102523.22;;;7.33;89.45
77106;BME280;66057;54.718;18.426;2023-04-10T08:32:32;102529.25;;;7.23;89.05
77106;BME280;66057;54.718;18.426;2023-04-10T08:34:58;102533.56;;;7.24;89.80
77106;BME280;66057;54.718;18.426;2023-04-10T08:37:25;102529.72;;;7.29;89.61
77106;BME280;66057;54.718;18.426;2023-04-10T08:39:51;102529.25;;;7.23;88.94
77106;BME280;66057;54.718;18.426;2023-04-10T08:42:17;102531.16;;;7.16;89.61
77106;BME280;66057;54.718;18.426;2023-04-10T08:44:43;102523.00;;;7.10;89.15
77106;BME280;66057;54.718;18.426;2023-04-10T08:47:12;102533.59;;;7.14;89.73
77106;BME280;66057;54.718;18.426;2023-04-10T08:49:47;102521.97;;;7.18;89.42
77106;BME280;66057;54.718;18.426;2023-04-10T08:52:20;102520.16;;;7.27;89.31
77106;BME280;66057;54.718;18.426;2023-04-10T08:54:50;102522.47;;;7.24;89.58
77106;BME280;66057;54.718;18.426;2023-04-10T08:57:18;102509.31;;;7.19;89.46
77106;BME280;66057;54.718;18.426;2023-04-10T08:59:46;102514.66;;;7.22;89.87
77106;BME280;66057;54.718;18.426;2023-04-10T09:02:12;102509.41;;;7.21;88.96
77106;BME280;66057;54.718;18.426;2023-04-10T09:04:38;102513.25;;;7.26;89.57
77106;BME280;66057;54.718;18.426;2023-04-10T09:07:03;102507.13;;;7.24;89.22
77106;BME280;66057;54.718;18.426;2023-04-10T09:09:30;102505.31;;;7.33;88.80
77106;BME280;66057;54.718;18.426;2023-04-10T09:12:00;102513.50;;;7.29;89.27
77106;BME280;66057;54.718;18.426;2023-04-10T09:14:32;102510.16;;;7.30;88.46
77106;BME280;66057;54.718;18.426;2023-04-10T09:19:40;102505.19;;;7.31;89.29
77106;BME280;66057;54.718;18.426;2023-04-10T09:22:06;102508.78;;;7.33;88.74
77106;BME280;66057;54.718;18.426;2023-04-10T09:24:39;102509.53;;;7.32;89.05
77106;BME280;66057;54.718;18.426;2023-04-10T09:27:06;102510.91;;;7.39;88.18
77106;BME280;66057;54.718;18.426;2023-04-10T09:29:43;102512.69;;;7.40;88.14
77106;BME280;66057;54.718;18.426;2023-04-10T09:32:10;102515.47;;;7.53;89.22
77106;BME280;66057;54.718;18.426;2023-04-10T09:34:51;102513.56;;;7.61;88.73
77106;BME280;66057;54.718;18.426;2023-04-10T09:37:18;102507.28;;;7.67;88.15
77106;BME280;66057;54.718;18.426;2023-04-10T09:39:45;102513.63;;;7.72;87.51
77106;BME280;66057;54.718;18.426;2023-04-10T09:42:11;102506.47;;;7.68;87.80
77106;BME280;66057;54.718;18.426;2023-04-10T09:44:38;102504.53;;;7.76;87.43
77106;BME280;66057;54.718;18.426;2023-04-10T09:47:15;102503.66;;;7.75;87.39
77106;BME280;66057;54.718;18.426;2023-04-10T09:49:49;102507.75;;;7.73;87.46
77106;BME280;66057;54.718;18.426;2023-04-10T09:52:29;102505.44;;;7.76;87.45
77106;BME280;66057;54.718;18.426;2023-04-10T09:55:01;102500.97;;;7.74;87.78
77106;BME280;66057;54.718;18.426;2023-04-10T09:57:28;102495.97;;;7.75;87.00
77106;BME280;66057;54.718;18.426;2023-04-10T09:59:57;102493.16;;;7.72;87.47
77106;BME280;66057;54.718;18.426;2023-04-10T10:02:24;102489.06;;;7.74;87.34
77106;BME280;66057;54.718;18.426;2023-04-10T10:04:52;102496.53;;;7.61;87.43
77106;BME280;66057;54.718;18.426;2023-04-10T10:07:19;102500.75;;;7.61;87.55
77106;BME280;66057;54.718;18.426;2023-04-10T10:09:49;102491.94;;;7.57;87.64
77106;BME280;66057;54.718;18.426;2023-04-10T10:13:10;102488.88;;;7.51;87.98
77106;BME280;66057;54.718;18.426;2023-04-10T10:15:41;102485.03;;;7.56;88.46
77106;BME280;66057;54.718;18.426;2023-04-10T10:18:21;102477.59;;;7.59;88.19
77106;BME280;66057;54.718;18.426;2023-04-10T10:20:51;102476.13;;;7.73;87.97
77106;BME280;66057;54.718;18.426;2023-04-10T10:23:17;102475.56;;;7.87;86.79
77106;BME280;66057;54.718;18.426;2023-04-10T10:25:44;102470.50;;;7.77;86.45
77106;BME280;66057;54.718;18.426;2023-04-10T10:28:13;102477.19;;;7.65;86.66
77106;BME280;66057;54.718;18.426;2023-04-10T10:30:39;102479.38;;;7.60;86.94
77106;BME280;66057;54.718;18.426;2023-04-10T10:33:06;102480.56;;;7.43;87.49
77106;BME280;66057;54.718;18.426;2023-04-10T10:35:37;102473.44;;;7.39;87.14
77106;BME280;66057;54.718;18.426;2023-04-10T10:38:04;102475.75;;;7.36;87.23
77106;BME280;66057;54.718;18.426;2023-04-10T10:43:37;102466.59;;;7.60;86.97
77106;BME280;66057;54.718;18.426;2023-04-10T10:46:23;102467.91;;;7.45;87.49
77106;BME280;66057;54.718;18.426;2023-04-10T10:48:57;102466.38;;;7.47;88.00
77106;BME280;66057;54.718;18.426;2023-04-10T10:51:23;102461.38;;;7.49;87.31
77106;BME280;66057;54.718;18.426;2023-04-10T10:53:48;102469.94;;;7.49;87.19
77106;BME280;66057;54.718;18.426;2023-04-10T11:01:13;102451.34;;;7.72;87.94
77106;BME280;66057;54.718;18.426;2023-04-10T11:03:40;102447.66;;;7.90;86.52
77106;BME280;66057;54.718;18.426;2023-04-10T11:06:07;102443.66;;;7.94;86.67
77106;BME280;66057;54.718;18.426;2023-04-10T11:08:42;102446.78;;;8.01;85.93
77106;BME280;66057;54.718;18.426;2023-04-10T11:14:10;102449.56;;;8.14;85.86
77106;BME280;66057;54.718;18.426;2023-04-10T11:19:04;102441.03;;;8.47;85.09
77106;BME280;66057;54.718;18.426;2023-04-10T11:21:31;102429.69;;;8.55;84.13
77106;BME280;66057;54.718;18.426;2023-04-10T11:31:45;102419.16;;;8.86;82.70
77106;BME280;66057;54.718;18.426;2023-04-10T11:34:12;102416.41;;;9.29;81.32
77106;BME280;66057;54.718;18.426;2023-04-10T11:36:41;102420.19;;;9.34;81.13
77106;BME280;66057;54.718;18.426;2023-04-10T11:39:09;102401.00;;;9.29;80.72
77106;BME280;66057;54.718;18.426;2023-04-10T11:41:48;102414.97;;;9.69;80.51
77106;BME280;66057;54.718;18.426;2023-04-10T11:44:16;102411.41;;;10.03;79.06
77106;BME280;66057;54.718;18.426;2023-04-10T11:46:46;102416.66;;;10.41;77.71
77106;BME280;66057;54.718;18.426;2023-04-10T11:49:18;102403.47;;;10.62;76.58
77106;BME280;66057;54.718;18.426;2023-04-10T11:51:46;102403.66;;;10.65;76.99
77106;BME280;66057;54.718;18.426;2023-04-10T11:54:15;102400.00;;;10.74;76.01
77106;BME280;66057;54.718;18.426;2023-04-10T11:56:43;102403.50;;;11.14;75.71
77106;BME280;66057;54.718;18.426;2023-04-10T11:59:09;102399.06;;;11.38;74.80
77106;BME280;66057;54.718;18.426;2023-04-10T12:01:40;102399.03;;;11.51;73.96
77106;BME280;66057;54.718;18.426;2023-04-10T12:06:43;102397.75;;;12.27;71.43
77106;BME280;66057;54.718;18.426;2023-04-10T12:09:15;102405.44;;;12.84;68.58
77106;BME280;66057;54.718;18.426;2023-04-10T12:14:21;102395.22;;;12.85;67.33
77106;BME280;66057;54.718;18.426;2023-04-10T12:16:48;102386.09;;;13.36;66.27
77106;BME280;66057;54.718;18.426;2023-04-10T12:19:14;102389.84;;;13.26;66.49
77106;BME280;66057;54.718;18.426;2023-04-10T12:21:43;102383.41;;;13.34;65.65
77106;BME280;66057;54.718;18.426;2023-04-10T12:24:10;102385.06;;;13.48;65.03
77106;BME280;66057;54.718;18.426;2023-04-10T12:26:36;102381.78;;;14.16;63.55
77106;BME280;66057;54.718;18.426;2023-04-10T12:29:02;102385.31;;;14.34;62.99
77106;BME280;66057;54.718;18.426;2023-04-10T12:31:35;102365.00;;;14.92;61.32
77106;BME280;66057;54.718;18.426;2023-04-10T12:34:02;102364.88;;;14.55;62.81
77106;BME280;66057;54.718;18.426;2023-04-10T12:36:31;102363.94;;;13.88;64.16
77106;BME280;66057;54.718;18.426;2023-04-10T12:39:03;102356.94;;;13.85;65.39
77106;BME280;66057;54.718;18.426;2023-04-10T12:41:31;102358.47;;;13.35;66.52
77106;BME280;66057;54.718;18.426;2023-04-10T12:44:11;102354.03;;;13.32;65.32
77106;BME280;66057;54.718;18.426;2023-04-10T12:46:38;102342.13;;;13.50;66.63
77106;BME280;66057;54.718;18.426;2023-04-10T12:49:12;102338.19;;;13.57;65.33
77106;BME280;66057;54.718;18.426;2023-04-10T12:54:10;102347.03;;;13.46;66.60
77106;BME280;66057;54.718;18.426;2023-04-10T12:56:43;102335.22;;;13.19;68.77
77106;BME280;66057;54.718;18.426;2023-04-10T12:59:10;102344.09;;;13.09;68.84
77106;BME280;66057;54.718;18.426;2023-04-10T13:01:37;102340.22;;;12.72;68.91
77106;BME280;66057;54.718;18.426;2023-04-10T13:04:03;102331.19;;;13.40;67.04
77106;BME280;66057;54.718;18.426;2023-04-10T13:06:29;102324.53;;;13.92;64.42
77106;BME280;66057;54.718;18.426;2023-04-10T13:08:54;102323.16;;;13.98;65.34
77106;BME280;66057;54.718;18.426;2023-04-10T13:11:20;102326.03;;;14.37;63.18
77106;BME280;66057;54.718;18.426;2023-04-10T13:13:48;102313.59;;;13.49;66.35
77106;BME280;66057;54.718;18.426;2023-04-10T13:16:15;102310.41;;;14.35;64.21
77106;BME280;66057;54.718;18.426;2023-04-10T13:18:41;102304.25;;;14.50;63.52
77106;BME280;66057;54.718;18.426;2023-04-10T13:21:07;102298.78;;;14.79;60.40
77106;BME280;66057;54.718;18.426;2023-04-10T13:23:33;102300.72;;;14.48;61.91
77106;BME280;66057;54.718;18.426;2023-04-10T13:25:59;102296.34;;;13.64;66.12
77106;BME280;66057;54.718;18.426;2023-04-10T13:28:24;102302.56;;;14.00;64.18
77106;BME280;66057;54.718;18.426;2023-04-10T13:30:50;102292.94;;;14.83;61.30